Time;durP1;ratioP1;P1;durP2;ratioP2;P2;SDS_P1;SDS_P2;PMS_P1;PMS_P2;Temp;Humidity;BMP_temperature;BMP_pressure;BME280_temperature;BME280_humidity;BME280_pressure;Samples;Min_cycle;Max_cycle;Signal;HPM_P1;HPM_P2
2021/11/23 00:00:39;;;;;;;51.70;37.75;;;;;;;10.11;63.75;99503.75;5031219;28;20017;-85
2021/11/23 00:03:05;;;;;;;51.78;38.83;;;;;;;10.13;63.19;99519.41;5030784;28;20017;-85
2021/11/23 00:05:32;;;;;;;49.35;37.70;;;;;;;10.03;63.96;99495.06;5029631;28;20600;-85
2021/11/23 00:07:57;;;;;;;46.78;35.50;;;;;;;9.96;63.38;99459.84;5029872;28;20495;-85
2021/11/23 00:10:23;;;;;;;48.80;37.25;;;;;;;8.83;63.54;99275.06;5031044;28;20022;-85
2021/11/23 00:12:57;;;;;;;54.30;36.95;;;;;;;10.30;63.55;99505.09;5030862;28;20037;-85
2021/11/23 00:15:23;;;;;;;52.10;39.00;;;;;;;9.86;63.51;99444.25;5030935;28;20095;-85
2021/11/23 00:17:48;;;;;;;48.90;36.80;;;;;;;8.40;63.67;99245.69;5030977;28;20029;-85
2021/11/23 00:20:14;;;;;;;50.65;37.45;;;;;;;8.93;63.34;99314.38;5029642;28;20502;-85
2021/11/23 00:22:39;;;;;;;52.17;39.08;;;;;;;9.73;63.87;99436.91;5030907;28;20109;-84
2021/11/23 00:25:06;;;;;;;48.10;38.13;;;;;;;10.43;63.54;99541.50;5031022;28;20495;-85
2021/11/23 00:27:32;;;;;;;51.70;37.92;;;;;;;9.22;63.04;99341.69;5030616;28;20025;-85
2021/11/23 00:29:58;;;;;;;57.60;43.03;;;;;;;10.09;63.35;99503.09;5030750;28;20099;-84
2021/11/23 00:32:23;;;;;;;54.28;41.72;;;;;;;9.76;63.46;99433.13;5030688;28;20026;-84
2021/11/23 00:34:49;;;;;;;53.85;41.17;;;;;;;9.94;63.14;99462.66;5033521;28;20025;-84
2021/11/23 00:37:15;;;;;;;59.58;43.47;;;;;;;10.28;63.13;99509.75;5034374;28;20107;-85
2021/11/23 00:39:40;;;;;;;51.40;40.03;;;;;;;9.61;63.52;99395.28;5034308;28;20029;-85
2021/11/23 00:42:06;;;;;;;55.92;41.00;;;;;;;9.66;63.63;99398.22;5034058;28;20612;-84
2021/11/23 00:44:31;;;;;;;55.92;40.95;;;;;;;10.24;63.29;99502.34;5032776;28;20036;-85
2021/11/23 00:46:57;;;;;;;54.90;40.50;;;;;;;9.86;63.51;99433.69;5034021;28;20033;-85
2021/11/23 00:49:23;;;;;;;51.15;40.45;;;;;;;9.95;63.28;99453.75;5034030;28;20033;-85
2021/11/23 00:51:48;;;;;;;52.33;40.35;;;;;;;10.33;63.33;99512.66;5034083;28;20079;-85
2021/11/23 00:54:14;;;;;;;50.40;39.33;;;;;;;10.00;63.15;99458.50;5032750;28;20470;-85
2021/11/23 00:56:39;;;;;;;57.10;40.25;;;;;;;9.81;63.54;99430.78;5034121;28;20083;-85
2021/11/23 00:59:05;;;;;;;54.92;38.92;;;;;;;10.61;63.16;99549.09;5034115;28;20064;-84
2021/11/23 01:01:31;;;;;;;52.35;40.88;;;;;;;10.14;63.67;99473.53;5032573;28;20025;-85
2021/11/23 01:03:56;;;;;;;56.15;43.17;;;;;;;9.94;63.54;99454.75;5032407;28;20021;-85
2021/11/23 01:06:22;;;;;;;56.30;42.75;;;;;;;10.34;63.39;99506.41;5032608;28;20056;-85
2021/11/23 01:08:48;;;;;;;54.53;40.80;;;;;;;10.62;63.51;99542.81;5033902;28;20037;-85
2021/11/23 01:11:17;;;;;;;56.97;39.67;;;;;;;10.45;63.18;99516.56;5033758;28;20029;-85
2021/11/23 01:13:43;;;;;;;52.22;39.70;;;;;;;9.39;63.47;99339.78;5033683;28;20029;-85
2021/11/23 01:16:10;;;;;;;52.38;39.05;;;;;;;10.63;63.99;99539.19;5033742;28;20065;-85
2021/11/23 01:18:37;;;;;;;56.67;42.22;;;;;;;10.35;63.57;99491.38;5033613;28;20029;-85
2021/11/23 01:21:04;;;;;;;56.45;43.00;;;;;;;10.65;63.60;99532.72;5032209;28;20029;-85
2021/11/23 01:23:30;;;;;;;56.47;43.45;;;;;;;10.35;63.32;99497.47;5033833;28;20489;-85
2021/11/23 01:25:56;;;;;;;59.72;42.83;;;;;;;10.50;63.62;99508.94;5033755;28;20030;-85
2021/11/23 01:28:23;;;;;;;58.25;43.70;;;;;;;10.66;63.07;99549.38;5033288;28;20395;-84
2021/11/23 01:30:50;;;;;;;63.92;45.55;;;;;;;9.13;63.11;99276.88;5033291;28;20412;-85
2021/11/23 01:33:16;;;;;;;57.63;44.97;;;;;;;10.06;63.30;99448.06;5033452;28;20033;-85
2021/11/23 01:35:42;;;;;;;61.55;44.75;;;;;;;10.32;63.33;99483.81;5032050;28;20391;-85
2021/11/23 01:38:07;;;;;;;55.78;43.30;;;;;;;9.89;63.55;99443.91;5033310;28;20032;-85
2021/11/23 01:40:33;;;;;;;63.05;47.35;;;;;;;10.61;63.22;99525.34;5031835;28;20030;-85
2021/11/23 01:43:05;;;;;;;55.15;41.30;;;;;;;10.47;63.76;99508.47;5033141;28;20033;-85
2021/11/23 01:45:31;;;;;;;50.35;36.45;;;;;;;9.98;63.38;99436.75;5033166;28;20041;-85
2021/11/23 01:47:57;;;;;;;47.53;36.50;;;;;;;9.79;63.04;99398.50;5032998;28;20037;-85
2021/11/23 01:50:22;;;;;;;47.75;36.67;;;;;;;9.44;63.45;99345.34;5031650;28;20032;-85
2021/11/23 01:52:48;;;;;;;43.08;34.35;;;;;;;10.53;63.83;99531.50;5032737;28;20052;-85
2021/11/23 01:55:13;;;;;;;44.63;35.28;;;;;;;9.19;64.04;99331.50;5031734;28;20087;-85
2021/11/23 01:57:40;;;;;;;43.97;35.28;;;;;;;8.95;63.68;99293.97;5032889;28;20033;-85
2021/11/23 02:00:08;;;;;;;42.03;34.42;;;;;;;9.56;64.01;99386.09;5031589;28;20034;-85
2021/11/23 02:02:34;;;;;;;44.28;32.80;;;;;;;9.98;64.03;99460.47;5032864;28;20033;-85
2021/11/23 02:04:59;;;;;;;39.97;30.17;;;;;;;9.77;63.91;99432.13;5032728;28;20036;-85
2021/11/23 02:07:25;;;;;;;39.38;30.63;;;;;;;9.98;64.26;99466.56;5031589;28;20018;-85
2021/11/23 02:09:50;;;;;;;41.30;31.92;;;;;;;9.95;64.06;99466.09;5031393;28;20521;-85
2021/11/23 02:12:17;;;;;;;38.65;30.73;;;;;;;10.18;64.02;99540.78;5032694;28;20027;-85
2021/11/23 02:14:43;;;;;;;41.50;30.55;;;;;;;10.08;64.29;99495.34;5032700;28;20053;-85
2021/11/23 02:17:08;;;;;;;39.80;30.73;;;;;;;10.33;64.27;99536.44;5031287;28;20064;-85
2021/11/23 02:19:34;;;;;;;41.35;29.52;;;;;;;9.90;64.26;99456.09;5031174;28;20029;-85
2021/11/23 02:22:00;;;;;;;36.92;28.98;;;;;;;9.11;64.51;99339.47;5032380;28;20047;-85
2021/11/23 02:24:26;;;;;;;41.85;31.90;;;;;;;10.40;64.46;99533.91;5031211;28;20482;-85
2021/11/23 02:26:51;;;;;;;37.42;27.60;;;;;;;10.04;64.39;99499.34;5032349;28;20079;-85
2021/11/23 02:29:17;;;;;;;38.58;30.00;;;;;;;9.59;64.83;99407.81;5032560;28;20033;-85
2021/11/23 02:31:42;;;;;;;41.13;31.38;;;;;;;10.11;64.42;99516.09;5032430;28;20083;-85
2021/11/23 02:34:08;;;;;;;41.50;31.00;;;;;;;10.35;64.76;99546.81;5032290;28;20033;-85
2021/11/23 02:36:35;;;;;;;35.05;29.60;;;;;;;9.56;64.21;99415.09;5030867;28;20044;-85
2021/11/23 02:39:03;;;;;;;33.55;25.88;;;;;;;9.61;64.95;99424.28;5032216;28;20025;-85
2021/11/23 02:41:28;;;;;;;36.50;29.45;;;;;;;10.13;64.60;99512.28;5032209;28;20067;-85
2021/11/23 02:43:59;;;;;;;37.97;28.23;;;;;;;9.79;65.00;99452.03;5031848;28;20049;-85
2021/11/23 02:46:24;;;;;;;40.28;29.77;;;;;;;10.37;65.01;99534.25;5031882;28;20021;-85
2021/11/23 02:48:50;;;;;;;38.13;28.90;;;;;;;9.98;64.94;99468.41;5031811;28;20032;-85
2021/11/23 02:51:17;;;;;;;38.42;29.15;;;;;;;10.01;64.61;99484.69;5031652;28;20072;-85
2021/11/23 02:53:50;;;;;;;41.45;31.45;;;;;;;10.29;64.88;99526.41;5031857;28;20063;-85
2021/11/23 02:56:16;;;;;;;36.58;29.40;;;;;;;10.35;64.83;99542.34;5031352;28;20544;-85
2021/11/23 02:58:46;;;;;;;36.28;29.02;;;;;;;10.33;64.63;99533.78;5031764;28;20060;-85
2021/11/23 03:01:14;;;;;;;36.85;29.13;;;;;;;9.87;64.74;99467.81;5030288;28;20079;-85
2021/11/23 03:03:39;;;;;;;36.13;28.90;;;;;;;9.83;64.86;99471.78;5031601;28;20410;-85
2021/11/23 03:06:05;;;;;;;42.95;32.75;;;;;;;9.73;64.79;99451.91;5030510;28;20030;-85
2021/11/23 03:08:32;;;;;;;45.95;33.05;;;;;;;10.13;65.39;99520.22;5031730;28;20108;-85
2021/11/23 03:10:58;;;;;;;49.05;34.53;;;;;;;8.74;64.86;99308.53;5030385;28;20029;-84
2021/11/23 03:13:24;;;;;;;47.58;34.95;;;;;;;9.91;65.18;99497.28;5031766;28;20028;-85
2021/11/23 03:15:49;;;;;;;44.25;32.53;;;;;;;10.04;65.15;99504.63;5031710;28;20021;-84
2021/11/23 03:18:15;;;;;;;42.17;30.85;;;;;;;9.73;65.06;99467.75;5030247;28;20033;-85
2021/11/23 03:20:43;;;;;;;67.97;42.65;;;;;;;10.04;65.36;99539.72;5030031;28;20136;-85
2021/11/23 03:23:09;;;;;;;58.10;39.30;;;;;;;9.98;65.52;99510.59;5031592;28;20099;-84
2021/11/23 03:25:35;;;;;;;43.72;31.50;;;;;;;10.23;64.99;99561.41;5030058;28;20498;-85
2021/11/23 03:28:01;;;;;;;40.83;30.52;;;;;;;10.23;65.46;99564.03;5030084;28;20028;-85
2021/11/23 03:30:29;;;;;;;38.08;28.40;;;;;;;9.73;65.56;99467.75;5030262;28;20022;-85
2021/11/23 03:32:55;;;;;;;37.55;28.58;;;;;;;9.36;65.30;99413.91;5031511;28;20457;-85
2021/11/23 03:35:28;;;;;;;33.50;25.13;;;;;;;10.21;65.44;99555.47;5031184;28;20080;-85
2021/11/23 03:37:55;;;;;;;29.60;23.85;;;;;;;10.19;65.24;99551.16;5030116;28;20115;-85
2021/11/23 03:40:22;;;;;;;33.47;25.92;;;;;;;9.52;65.22;99447.25;5031176;28;20115;-85
2021/11/23 03:42:48;;;;;;;30.20;25.52;;;;;;;9.75;65.31;99492.94;5030008;28;20025;-85
2021/11/23 03:45:14;;;;;;;33.97;25.05;;;;;;;9.62;65.88;99476.00;5029991;28;20490;-85
2021/11/23 03:47:40;;;;;;;35.42;25.38;;;;;;;10.16;65.22;99556.78;5029856;28;20036;-85
2021/11/23 03:50:09;;;;;;;30.88;24.65;;;;;;;10.14;65.45;99555.34;5029659;28;20182;-84
2021/11/23 03:52:35;;;;;;;29.90;24.15;;;;;;;10.12;65.36;99558.16;5030907;28;20115;-85
2021/11/23 03:55:02;;;;;;;31.48;26.15;;;;;;;10.13;65.46;99569.53;5031018;28;20029;-85
2021/11/23 03:57:27;;;;;;;53.58;37.28;;;;;;;9.39;65.26;99445.16;5029848;28;20087;-85
2021/11/23 03:59:53;;;;;;;51.15;35.35;;;;;;;9.33;65.47;99435.31;5031026;28;20029;-85
2021/11/23 04:02:21;;;;;;;51.50;35.00;;;;;;;9.85;65.60;99519.91;5031122;28;20387;-86
2021/11/23 04:04:47;;;;;;;38.60;29.27;;;;;;;9.68;65.58;99501.72;5029777;28;20025;-85
2021/11/23 04:07:13;;;;;;;36.15;28.98;;;;;;;10.12;65.53;99565.22;5030977;28;20021;-86
2021/11/23 04:09:39;;;;;;;38.28;28.75;;;;;;;10.10;65.51;99562.78;5033734;28;20032;-86
2021/11/23 04:12:05;;;;;;;34.22;26.88;;;;;;;10.10;65.89;99583.06;5035175;28;20021;-86
2021/11/23 04:14:30;;;;;;;31.33;25.20;;;;;;;9.64;65.82;99489.84;5035045;28;20025;-85
2021/11/23 04:16:56;;;;;;;34.00;27.88;;;;;;;9.59;65.73;99485.09;5034921;28;20516;-85
2021/11/23 04:19:22;;;;;;;34.50;28.08;;;;;;;9.60;65.50;99499.09;5034732;28;20473;-85
2021/11/23 04:21:47;;;;;;;39.83;31.17;;;;;;;9.65;65.54;99496.75;5033229;28;20033;-84
2021/11/23 04:24:12;;;;;;;39.08;29.17;;;;;;;9.39;65.56;99462.78;5033572;28;20029;-85
2021/11/23 04:26:38;;;;;;;38.70;28.98;;;;;;;9.73;65.66;99529.19;5034886;28;20548;-84
2021/11/23 04:29:03;;;;;;;43.85;30.35;;;;;;;10.07;65.40;99589.50;5033333;28;20013;-85
2021/11/23 04:31:29;;;;;;;37.42;27.85;;;;;;;9.78;66.00;99528.69;5033273;28;20025;-85
2021/11/23 04:33:54;;;;;;;34.92;25.73;;;;;;;9.54;65.94;99490.88;5033209;28;20083;-85
2021/11/23 04:36:20;;;;;;;34.45;27.33;;;;;;;9.34;65.64;99458.03;5034244;28;20530;-85
2021/11/23 04:38:45;;;;;;;35.75;27.13;;;;;;;9.57;65.41;99490.53;5034438;28;20033;-85
2021/11/23 04:41:11;;;;;;;45.40;33.40;;;;;;;9.35;65.56;99453.59;5034249;28;20053;-85
2021/11/23 04:43:36;;;;;;;45.30;32.40;;;;;;;9.49;65.26;99471.31;5033153;28;20509;-85
2021/11/23 04:46:02;;;;;;;36.78;29.08;;;;;;;10.09;65.48;99573.50;5033040;28;20036;-85
2021/11/23 04:48:28;;;;;;;39.13;29.33;;;;;;;10.08;65.84;99574.50;5033009;28;20018;-85
2021/11/23 04:50:55;;;;;;;35.22;28.92;;;;;;;9.66;65.74;99516.84;5032789;28;20528;-85
2021/11/23 04:53:21;;;;;;;37.60;30.05;;;;;;;9.77;65.40;99524.41;5034125;28;20513;-85
2021/11/23 04:55:46;;;;;;;36.92;30.40;;;;;;;9.23;65.63;99455.78;5034305;28;20029;-85
2021/11/23 04:58:12;;;;;;;40.35;30.77;;;;;;;9.49;65.76;99487.94;5033996;28;20036;-85
2021/11/23 05:00:38;;;;;;;44.40;32.90;;;;;;;9.07;65.82;99435.59;5033959;28;20033;-85
2021/11/23 05:03:03;;;;;;;47.67;33.55;;;;;;;9.35;65.71;99464.13;5032507;28;20507;-85
2021/11/23 05:05:28;;;;;;;40.78;30.23;;;;;;;9.36;65.72;99468.41;5033767;28;20013;-85
2021/11/23 05:07:54;;;;;;;39.60;30.90;;;;;;;9.79;65.68;99551.41;5034009;28;20062;-85
2021/11/23 05:10:20;;;;;;;45.72;32.63;;;;;;;10.03;65.80;99577.66;5033910;28;20486;-85
2021/11/23 05:12:45;;;;;;;37.28;29.00;;;;;;;9.70;65.78;99544.53;5033850;28;20057;-86
2021/11/23 05:15:11;;;;;;;46.40;33.38;;;;;;;9.85;65.64;99570.00;5032279;28;20033;-86
2021/11/23 05:17:37;;;;;;;41.40;32.88;;;;;;;10.02;65.87;99576.00;5032446;28;20059;-84
2021/11/23 05:20:05;;;;;;;44.38;31.55;;;;;;;9.67;65.45;99537.78;5033174;28;20025;-85
2021/11/23 05:22:30;;;;;;;45.92;35.28;;;;;;;9.31;65.86;99455.75;5033688;28;20036;-85
2021/11/23 05:24:56;;;;;;;47.90;34.83;;;;;;;9.62;65.87;99510.28;5033476;28;20033;-85
2021/11/23 05:27:21;;;;;;;63.65;43.60;;;;;;;9.56;65.86;99504.72;5033267;28;20030;-85
2021/11/23 05:29:47;;;;;;;47.90;36.97;;;;;;;10.03;65.58;99593.47;5032314;28;20036;-85
2021/11/23 05:32:12;;;;;;;52.28;37.92;;;;;;;9.43;65.72;99493.91;5033574;28;20552;-85
2021/11/23 05:34:38;;;;;;;55.33;38.15;;;;;;;9.44;65.80;99486.81;5032068;28;20461;-85
2021/11/23 05:37:04;;;;;;;40.42;31.17;;;;;;;9.32;65.70;99462.66;5033345;28;20021;-85
2021/11/23 05:39:29;;;;;;;40.35;31.63;;;;;;;8.80;65.92;99392.06;5033653;28;20033;-86
2021/11/23 05:41:55;;;;;;;46.78;35.65;;;;;;;9.88;66.16;99574.94;5033179;28;20029;-85
2021/11/23 05:44:21;;;;;;;43.53;33.05;;;;;;;9.61;65.76;99540.28;5033175;28;20517;-85
2021/11/23 05:46:46;;;;;;;54.28;40.00;;;;;;;9.55;65.86;99524.16;5033189;28;20116;-85
2021/11/23 05:49:11;;;;;;;45.65;35.17;;;;;;;9.28;66.03;99492.16;5033007;28;20025;-85
2021/11/23 05:51:39;;;;;;;44.28;33.05;;;;;;;9.87;65.78;99612.03;5033115;28;20464;-85
2021/11/23 05:54:05;;;;;;;42.78;31.27;;;;;;;9.25;66.15;99488.06;5031653;28;20112;-85
2021/11/23 05:56:31;;;;;;;40.97;31.98;;;;;;;9.89;65.78;99604.75;5032884;28;20167;-85
2021/11/23 05:58:56;;;;;;;43.88;30.70;;;;;;;8.78;65.98;99425.66;5032929;28;20029;-85
2021/11/23 06:01:22;;;;;;;45.35;34.95;;;;;;;9.59;65.71;99571.25;5032814;28;20482;-85
2021/11/23 06:03:47;;;;;;;43.53;35.42;;;;;;;8.43;65.86;99373.44;5032620;28;20030;-85
2021/11/23 06:06:13;;;;;;;46.15;36.50;;;;;;;9.93;65.77;99628.97;5031344;28;20029;-85
2021/11/23 06:08:40;;;;;;;48.03;38.30;;;;;;;9.19;65.47;99486.09;5031354;28;20124;-85
2021/11/23 06:11:06;;;;;;;51.42;41.63;;;;;;;9.66;65.63;99559.03;5031154;28;20528;-85
2021/11/23 06:13:31;;;;;;;50.28;38.03;;;;;;;10.07;65.66;99628.25;5032520;28;20026;-85
2021/11/23 06:15:57;;;;;;;50.90;39.30;;;;;;;9.48;65.67;99536.38;5032438;28;20036;-85
2021/11/23 06:18:22;;;;;;;53.28;43.00;;;;;;;9.38;65.54;99506.75;5031279;28;20030;-85
2021/11/23 06:20:50;;;;;;;43.90;35.40;;;;;;;9.22;65.18;99489.22;5032899;28;20025;-85
2021/11/23 06:23:18;;;;;;;46.47;36.92;;;;;;;10.25;65.40;99641.22;5032778;28;20033;-85
2021/11/23 06:25:49;;;;;;;60.28;45.17;;;;;;;10.29;65.19;99639.88;5032371;28;20036;-85
2021/11/23 06:28:17;;;;;;;60.60;46.05;;;;;;;9.93;65.09;99592.06;5030918;28;20025;-85
2021/11/23 06:30:42;;;;;;;66.65;47.38;;;;;;;10.32;65.04;99644.81;5030246;28;20467;-84
2021/11/23 06:33:08;;;;;;;68.10;45.20;;;;;;;10.03;65.02;99609.31;5030216;28;20120;-86
2021/11/23 06:35:34;;;;;;;76.03;52.78;;;;;;;9.95;65.22;99596.16;5031994;28;20030;-85
2021/11/23 06:38:00;;;;;;;84.30;56.60;;;;;;;9.64;64.93;99551.28;5031965;28;20040;-85
2021/11/23 06:40:26;;;;;;;90.10;61.20;;;;;;;10.40;64.90;99656.16;5030671;28;20490;-85
2021/11/23 06:42:51;;;;;;;97.68;70.40;;;;;;;10.42;65.08;99659.44;5032075;28;20025;-84
2021/11/23 06:45:17;;;;;;;87.47;64.10;;;;;;;9.99;65.02;99581.63;5042869;28;20032;-85
2021/11/23 06:47:42;;;;;;;85.60;60.70;;;;;;;10.15;65.01;99631.66;5051700;28;20107;-85
2021/11/23 06:50:09;;;;;;;80.82;55.65;;;;;;;10.18;64.19;99593.56;5050273;28;20060;-84
2021/11/23 06:52:35;;;;;;;73.15;53.72;;;;;;;10.09;64.67;99563.78;5045079;28;20506;-84
2021/11/23 06:55:01;;;;;;;73.05;54.30;;;;;;;10.77;64.46;99667.81;5040353;28;20040;-85
2021/11/23 06:57:26;;;;;;;77.20;57.95;;;;;;;10.46;64.25;99622.97;5039975;28;20031;-84
2021/11/23 06:59:51;;;;;;;83.80;63.03;;;;;;;10.20;64.11;99559.94;5041807;28;20395;-84
2021/11/23 07:02:17;;;;;;;80.18;61.15;;;;;;;10.19;64.61;99564.38;5038725;28;20029;-84
2021/11/23 07:04:42;;;;;;;86.68;64.60;;;;;;;10.67;64.46;99632.88;5049092;28;20032;-83
2021/11/23 07:07:11;;;;;;;89.53;65.30;;;;;;;10.66;64.11;99639.16;5044334;28;20033;-85
2021/11/23 07:09:37;;;;;;;84.28;62.42;;;;;;;10.72;64.04;99639.28;5032847;28;20036;-85
2021/11/23 07:12:04;;;;;;;78.13;59.88;;;;;;;10.27;63.96;99566.16;5031430;28;20532;-84
2021/11/23 07:14:30;;;;;;;74.47;53.92;;;;;;;10.48;64.42;99616.50;5031517;28;20025;-85
2021/11/23 07:16:55;;;;;;;72.30;49.28;;;;;;;10.13;64.31;99538.69;5031178;28;20494;-84
2021/11/23 07:19:20;;;;;;;67.68;50.42;;;;;;;10.65;64.41;99616.41;5033401;28;20037;-85
2021/11/23 07:21:46;;;;;;;72.22;54.67;;;;;;;10.83;64.19;99648.59;5039027;28;20036;-84
2021/11/23 07:24:12;;;;;;;75.93;54.67;;;;;;;10.42;64.32;99568.88;5044772;28;20490;-86
2021/11/23 07:26:38;;;;;;;71.80;53.58;;;;;;;10.73;64.40;99622.44;5065448;28;20021;-85
2021/11/23 07:29:04;;;;;;;70.72;49.83;;;;;;;10.85;63.95;99651.06;5050808;28;20051;-85
2021/11/23 07:31:30;;;;;;;71.30;50.42;;;;;;;10.68;64.52;99616.88;5050728;28;20025;-85
2021/11/23 07:33:58;;;;;;;78.80;54.20;;;;;;;10.65;64.18;99611.13;5049500;28;20422;-85
2021/11/23 07:36:24;;;;;;;69.82;51.65;;;;;;;11.16;63.91;99694.09;5051044;28;20024;-85
2021/11/23 07:38:52;;;;;;;78.95;51.45;;;;;;;10.99;64.11;99689.91;5043388;28;20510;-85
2021/11/23 07:41:17;;;;;;;71.85;49.78;;;;;;;10.69;64.61;99630.88;5029476;28;20033;-85
2021/11/23 07:43:43;;;;;;;69.75;49.33;;;;;;;10.27;64.61;99554.78;5040241;28;20033;-85
2021/11/23 07:46:09;;;;;;;71.75;54.13;;;;;;;9.65;64.57;99450.13;5056334;28;20033;-85
2021/11/23 07:48:36;;;;;;;74.18;53.15;;;;;;;11.23;64.52;99700.31;5057608;28;20089;-84
2021/11/23 07:51:02;;;;;;;64.40;50.00;;;;;;;11.23;64.53;99705.59;5057394;28;20025;-85
2021/11/23 07:53:28;;;;;;;77.63;56.50;;;;;;;10.41;64.61;99573.34;5057482;28;20040;-85
2021/11/23 07:55:53;;;;;;;87.95;64.70;;;;;;;11.30;64.19;99703.91;5057368;28;20032;-85
2021/11/23 07:58:20;;;;;;;101.70;70.90;;;;;;;11.32;64.58;99707.19;5057556;28;20116;-84
2021/11/23 08:00:45;;;;;;;91.75;69.10;;;;;;;10.56;64.42;99576.03;5038288;28;20558;-84
2021/11/23 08:03:11;;;;;;;86.72;63.45;;;;;;;11.17;64.41;99679.06;5044000;28;20035;-85
2021/11/23 08:05:40;;;;;;;76.38;58.25;;;;;;;11.06;64.70;99659.16;5039451;28;20038;-85
2021/11/23 08:08:08;;;;;;;80.82;60.20;;;;;;;11.29;64.24;99675.81;5051838;28;20036;-85
2021/11/23 08:10:34;;;;;;;72.53;55.35;;;;;;;11.58;64.39;99712.06;5057069;28;20500;-85
2021/11/23 08:13:00;;;;;;;68.80;55.10;;;;;;;11.00;64.27;99615.78;5056945;28;20029;-83
2021/11/23 08:15:27;;;;;;;67.18;52.22;;;;;;;11.59;64.19;99697.84;5065797;28;20033;-85
2021/11/23 08:17:52;;;;;;;65.68;50.50;;;;;;;11.05;64.05;99615.22;5037546;28;20033;-85
2021/11/23 08:20:18;;;;;;;64.28;47.28;;;;;;;11.44;64.33;99665.25;5039409;28;20390;-84
2021/11/23 08:22:45;;;;;;;60.45;44.45;;;;;;;11.85;64.33;99708.00;5045837;28;20029;-84
2021/11/23 08:25:12;;;;;;;59.45;42.70;;;;;;;11.34;63.69;99638.28;5036476;28;20025;-86
2021/11/23 08:27:39;;;;;;;51.03;37.35;;;;;;;11.45;64.17;99630.72;5039324;28;20025;-85
2021/11/23 08:30:07;;;;;;;50.22;37.58;;;;;;;11.74;63.85;99672.22;5035090;28;20030;-86
2021/11/23 08:32:33;;;;;;;51.80;39.15;;;;;;;12.07;63.70;99701.00;5043325;28;20024;-85
2021/11/23 08:34:59;;;;;;;53.58;37.97;;;;;;;11.53;63.41;99599.91;5043949;28;20025;-86
2021/11/23 08:37:27;;;;;;;45.28;35.70;;;;;;;11.99;63.72;99680.75;5055663;28;20035;-86
2021/11/23 08:39:55;;;;;;;47.13;37.28;;;;;;;11.95;63.70;99674.19;5050625;28;20028;-85
2021/11/23 08:42:21;;;;;;;51.10;36.50;;;;;;;11.82;63.43;99621.06;5054002;28;20486;-85
2021/11/23 08:44:48;;;;;;;54.97;39.88;;;;;;;11.82;63.25;99628.19;5039941;28;20032;-85
2021/11/23 08:47:15;;;;;;;42.17;32.15;;;;;;;11.84;63.23;99620.88;5042786;28;20525;-86
2021/11/23 08:49:40;;;;;;;44.70;34.35;;;;;;;12.45;62.62;99706.97;5036153;28;20065;-86
2021/11/23 08:52:06;;;;;;;45.15;33.20;;;;;;;12.20;62.17;99673.88;5044445;28;20115;-85
2021/11/23 08:54:32;;;;;;;43.97;33.97;;;;;;;12.47;61.67;99714.72;5050213;28;20036;-85
2021/11/23 08:57:05;;;;;;;48.97;36.30;;;;;;;12.23;61.52;99711.41;5043991;28;20037;-85
2021/11/23 08:59:39;;;;;;;40.03;32.80;;;;;;;12.48;61.45;99725.13;5044949;28;20040;-86
2021/11/23 09:02:06;;;;;;;42.90;32.67;;;;;;;11.82;61.63;99610.50;5047745;28;20083;-85
2021/11/23 09:04:34;;;;;;;51.38;38.08;;;;;;;12.35;60.96;99714.38;5046633;28;20029;-85
2021/11/23 09:07:02;;;;;;;47.97;37.00;;;;;;;12.58;61.24;99716.91;5047362;28;20044;-84
2021/11/23 09:09:29;;;;;;;45.05;35.00;;;;;;;12.31;61.02;99678.69;5035144;28;20028;-84
2021/11/23 09:11:57;;;;;;;45.40;34.58;;;;;;;12.33;61.01;99679.34;5035576;28;20017;-85
2021/11/23 09:14:24;;;;;;;47.20;37.47;;;;;;;12.37;60.85;99688.53;5042466;28;20026;-85
2021/11/23 09:16:50;;;;;;;40.22;32.25;;;;;;;11.99;60.53;99646.34;5049406;28;20030;-85
2021/11/23 09:19:16;;;;;;;39.92;31.25;;;;;;;12.32;60.37;99670.56;5038286;28;20036;-85
2021/11/23 09:21:41;;;;;;;40.63;33.00;;;;;;;12.67;60.57;99729.06;5043983;28;20036;-84
2021/11/23 09:24:07;;;;;;;41.42;32.13;;;;;;;12.42;60.60;99686.16;5033291;28;20044;-84
2021/11/23 09:26:32;;;;;;;48.40;34.53;;;;;;;12.28;60.84;99657.91;5038821;28;20513;-83
2021/11/23 09:28:58;;;;;;;42.33;33.25;;;;;;;12.75;60.91;99723.63;5064359;28;20518;-84
2021/11/23 09:31:24;;;;;;;41.55;31.85;;;;;;;12.19;60.73;99630.72;5045965;28;20031;-84
2021/11/23 09:33:50;;;;;;;39.95;33.25;;;;;;;12.62;60.23;99692.50;5052612;28;20413;-86
2021/11/23 09:36:16;;;;;;;42.53;35.40;;;;;;;12.29;60.18;99618.00;5039160;28;20036;-82
2021/11/23 09:38:42;;;;;;;44.90;34.50;;;;;;;12.69;60.20;99684.66;5033542;28;20037;-89
2021/11/23 09:41:08;;;;;;;41.83;33.20;;;;;;;12.55;60.01;99638.63;5031492;28;20027;-87
2021/11/23 09:43:36;;;;;;;39.30;31.17;;;;;;;13.03;59.80;99700.69;5031462;28;20112;-86
2021/11/23 09:46:01;;;;;;;43.03;32.60;;;;;;;13.03;60.10;99707.81;5032139;28;20056;-82
2021/11/23 09:48:27;;;;;;;38.55;29.70;;;;;;;12.54;59.80;99629.03;5031045;28;20167;-83
2021/11/23 09:50:53;;;;;;;40.13;31.55;;;;;;;12.71;59.97;99642.91;5035746;28;20103;-83
2021/11/23 09:53:21;;;;;;;40.25;29.75;;;;;;;12.47;59.93;99595.56;5043713;28;20029;-84
2021/11/23 09:55:47;;;;;;;40.50;30.80;;;;;;;12.31;59.12;99573.63;5033240;28;20048;-85
2021/11/23 09:58:13;;;;;;;39.67;31.58;;;;;;;12.69;59.34;99621.06;5059867;28;20074;-84
2021/11/23 10:00:45;;;;;;;35.00;26.55;;;;;;;13.26;59.27;99703.16;5057794;28;20036;-83
2021/11/23 10:03:23;;;;;;;37.35;30.10;;;;;;;13.09;58.77;99671.78;5042155;28;20029;-84
2021/11/23 10:05:51;;;;;;;36.30;28.65;;;;;;;12.06;58.74;99485.81;5037622;28;20071;-84
2021/11/23 10:08:18;;;;;;;36.70;28.35;;;;;;;12.65;58.81;99578.25;5046599;28;20446;-84
2021/11/23 10:10:49;;;;;;;43.70;28.77;;;;;;;12.91;58.43;99614.75;5046677;28;20033;-83
2021/11/23 10:13:17;;;;;;;40.22;29.02;;;;;;;13.46;58.35;99703.34;5047964;28;20028;-84
2021/11/23 10:15:47;;;;;;;33.45;27.80;;;;;;;13.08;58.03;99633.84;5052252;28;20447;-85
2021/11/23 10:18:15;;;;;;;43.92;30.10;;;;;;;13.56;58.03;99689.75;5036831;28;20030;-85
2021/11/23 10:20:47;;;;;;;39.20;30.35;;;;;;;12.97;57.75;99597.25;5043953;28;20036;-84
2021/11/23 10:23:17;;;;;;;;;;;;;;;13.58;57.65;99687.72;5031255;28;20029;-88
2021/11/23 10:25:44;;;;;;;28.20;23.48;;;;;;;13.12;57.68;99599.81;5060795;28;19924;-86
2021/11/23 10:28:10;;;;;;;30.50;24.70;;;;;;;13.08;57.30;99594.09;5042451;28;20496;-86
2021/11/23 10:30:41;;;;;;;27.60;22.48;;;;;;;13.16;56.71;99585.16;5038480;28;20022;-86
2021/11/23 10:33:07;;;;;;;29.35;22.13;;;;;;;13.92;56.64;99694.84;5045152;28;20029;-86
2021/11/23 10:35:36;;;;;;;28.27;23.85;;;;;;;13.25;56.52;99579.53;5030502;28;20044;-86
2021/11/23 10:38:03;;;;;;;28.92;22.23;;;;;;;13.63;56.27;99618.97;5041267;28;20029;-83
2021/11/23 10:40:30;;;;;;;26.60;22.40;;;;;;;14.08;55.67;99717.59;5050269;28;20063;-85
2021/11/23 10:42:59;;;;;;;26.67;23.02;;;;;;;14.18;55.80;99684.41;5048758;28;20029;-85
2021/11/23 10:45:26;;;;;;;26.13;22.17;;;;;;;13.50;55.16;99555.22;5040066;28;20453;-84
2021/11/23 10:47:51;;;;;;;26.70;22.52;;;;;;;14.25;55.04;99679.94;5030234;28;20087;-83
2021/11/23 10:50:20;;;;;;;24.83;21.67;;;;;;;13.96;54.79;99593.41;5038090;28;20033;-86
2021/11/23 10:52:50;;;;;;;23.45;20.90;;;;;;;14.23;54.26;99636.00;5030287;28;20116;-87
2021/11/23 10:55:35;;;;;;;26.88;22.15;;;;;;;14.22;53.99;99645.81;5038309;28;20029;-87
2021/11/23 10:58:03;;;;;;;23.23;18.75;;;;;;;13.80;53.83;99550.47;5040249;28;20033;-85
2021/11/23 11:00:30;;;;;;;30.15;22.42;;;;;;;13.58;53.80;99516.09;5031114;28;20060;-85
2021/11/23 11:03:02;;;;;;;32.28;28.30;;;;;;;14.22;54.20;99624.56;5045061;28;20063;-85
2021/11/23 11:05:40;;;;;;;33.00;26.38;;;;;;;14.27;54.18;99618.66;5049212;28;20585;-88
2021/11/23 11:08:06;;;;;;;32.03;26.30;;;;;;;14.08;54.11;99592.81;5045419;28;20037;-87
2021/11/23 11:10:34;;;;;;;30.65;24.95;;;;;;;12.86;53.87;99423.72;5049189;28;20082;-85
2021/11/23 11:13:03;;;;;;;29.55;23.75;;;;;;;14.59;54.06;99686.19;5049936;28;20032;-84
2021/11/23 11:15:45;;;;;;;23.55;19.80;;;;;;;14.53;53.72;99693.13;5049891;28;20055;-84